NZCH/CHC METAR and TAF weather

Enter ICAO airport designator
Station Type Date Time Source
NZCH METAR 2021/04/18 02:00 UTC NOAA

NZCH 180200Z AUTO 07009KT 9999 NCD 19/08 Q1009 NOSIG


Station Type Date Time Source
NZCH Decoded METAR 2021/04/18 02:00 UTC NOAA

Christchurch, New Zealand (NZCH) 43-29S 172-33E 30M
Apr 17, 2021 - 10:00 PM EDT / 2021.04.18 0200 UTC
Wind: from the ENE (070 degrees) at 10 MPH (9 KT):0
Visibility: greater than 7 mile(s):0
Temperature: 66 F (19 C)
Dew Point: 46 F (8 C)
Relative Humidity: 48%
Pressure (altimeter): 29.80 in. Hg (1009 hPa)
ob: NZCH 180200Z AUTO 07009KT 9999 NCD 19/08 Q1009 NOSIG
cycle: 2

Station Type Date Time Source
NZCH TAF 2021/04/17 18:09 UTC NOAA

TAF NZCH 171706Z 1718/1818 VRB02KT CAVOK
BECMG 1721/1723 02010KT
BECMG 1806/1808 30005KT

Example: see airport list